Time;durP1;ratioP1;P1;durP2;ratioP2;P2;SDS_P1;SDS_P2;PMS_P1;PMS_P2;Temp;Humidity;BMP_temperature;BMP_pressure;BME280_temperature;BME280_humidity;BME280_pressure;Samples;Min_cycle;Max_cycle;Signal;HPM_P1;HPM_P2
2022/07/18 00:01:41;;;;;;;3.03;2.70;;;;;;;12.92;100.00;155769.47;5005909;28;20022;-79
2022/07/18 00:04:06;;;;;;;4.65;3.00;;;;;;;12.89;100.00;155761.75;5005960;28;20038;-79
2022/07/18 00:06:32;;;;;;;4.55;2.80;;;;;;;12.82;100.00;155745.03;4999149;28;20033;-78
2022/07/18 00:08:58;;;;;;;4.97;2.80;;;;;;;12.91;100.00;155766.88;5010608;28;20030;-79
2022/07/18 00:11:23;;;;;;;4.95;3.25;;;;;;;12.95;100.00;155775.88;5025325;28;20041;-79
2022/07/18 00:13:51;;;;;;;4.43;2.72;;;;;;;12.94;100.00;155773.28;5002887;28;20041;-77
2022/07/18 00:16:17;;;;;;;6.05;3.40;;;;;;;12.93;100.00;155772.00;5009331;28;20521;-78
2022/07/18 00:18:43;;;;;;;3.55;2.78;;;;;;;12.94;100.00;155773.28;4994744;28;20701;-78
2022/07/18 00:21:09;;;;;;;5.53;3.25;;;;;;;13.09;100.00;155810.56;5019140;28;20029;-76
2022/07/18 00:23:35;;;;;;;5.20;3.60;;;;;;;13.18;100.00;155834.97;5009664;28;20096;-77
2022/07/18 00:26:01;;;;;;;4.68;3.50;;;;;;;13.21;100.00;155841.41;5022409;28;20204;-79
2022/07/18 00:28:27;;;;;;;6.03;3.33;;;;;;;13.27;100.00;155855.56;5003694;28;20038;-79
2022/07/18 00:30:52;;;;;;;7.22;3.85;;;;;;;13.35;100.00;155876.16;5008838;28;20068;-80
2022/07/18 00:33:18;;;;;;;5.65;3.70;;;;;;;13.25;100.00;155851.69;5026548;28;20040;-78
2022/07/18 00:35:44;;;;;;;6.43;3.65;;;;;;;13.28;100.00;155858.09;5006395;28;20121;-80
2022/07/18 00:38:09;;;;;;;5.90;3.80;;;;;;;13.23;100.00;155846.56;5019207;28;20149;-79
2022/07/18 00:40:35;;;;;;;5.40;3.50;;;;;;;13.11;100.00;155817.00;5026807;28;20041;-78
2022/07/18 00:43:00;;;;;;;6.82;4.60;;;;;;;13.14;100.00;155824.69;4995253;28;20040;-79
2022/07/18 00:45:26;;;;;;;5.35;3.67;;;;;;;13.12;100.00;155818.28;4991455;28;20576;-80
2022/07/18 00:47:52;;;;;;;8.10;4.20;;;;;;;13.06;100.00;155804.16;5009440;28;20029;-79
2022/07/18 00:50:19;;;;;;;6.45;3.53;;;;;;;12.99;100.00;155786.16;5006635;28;20053;-79
2022/07/18 00:52:45;;;;;;;6.60;3.92;;;;;;;12.98;100.00;155784.88;5007558;28;20041;-80
2022/07/18 00:55:11;;;;;;;4.97;3.40;;;;;;;12.92;100.00;155768.16;5009082;28;20082;-79
2022/07/18 00:57:39;;;;;;;5.50;3.38;;;;;;;12.89;100.00;155761.75;4988294;28;20407;-79
2022/07/18 01:02:53;;;;;;;5.68;3.50;;;;;;;12.84;100.00;155748.88;5007589;28;20034;-80
2022/07/18 01:05:18;;;;;;;5.53;3.30;;;;;;;12.78;100.00;155734.75;5025090;28;20105;-80
2022/07/18 01:07:44;;;;;;;3.83;3.10;;;;;;;12.80;100.00;155739.88;5023439;28;20538;-81
2022/07/18 01:10:10;;;;;;;6.97;3.70;;;;;;;12.84;100.00;155748.88;5021275;28;20442;-79
2022/07/18 01:12:36;;;;;;;6.97;3.58;;;;;;;12.80;100.00;155739.88;4977458;28;20092;-79
2022/07/18 01:15:03;;;;;;;4.30;3.30;;;;;;;12.81;100.00;155741.22;5020968;28;20030;-81
2022/07/18 01:17:29;;;;;;;4.68;3.65;;;;;;;12.72;100.00;155719.34;4989953;28;20034;-80
2022/07/18 01:19:55;;;;;;;5.93;4.07;;;;;;;12.69;100.00;155711.63;4973489;28;20040;-80
2022/07/18 01:22:20;;;;;;;5.63;3.90;;;;;;;12.60;100.00;155688.50;4995235;28;20505;-80
2022/07/18 01:24:47;;;;;;;6.00;3.80;;;;;;;12.57;100.00;155682.09;4975544;28;20029;-80
2022/07/18 01:27:18;;;;;;;6.25;3.70;;;;;;;12.57;100.00;155682.09;4988848;28;20030;-79
2022/07/18 01:29:46;;;;;;;4.63;3.53;;;;;;;12.53;100.00;155671.81;4985327;28;20132;-80
2022/07/18 01:32:12;;;;;;;5.57;3.42;;;;;;;12.49;100.00;155661.56;5006116;28;20034;-80
2022/07/18 01:34:38;;;;;;;6.35;3.58;;;;;;;12.46;100.00;155653.84;5010459;28;20030;-79
2022/07/18 01:37:06;;;;;;;7.07;4.15;;;;;;;12.44;100.00;155649.97;5005305;28;20060;-79
2022/07/18 01:39:32;;;;;;;5.47;3.40;;;;;;;12.43;100.00;155646.09;5007225;28;20140;-80
2022/07/18 01:42:02;;;;;;;6.05;4.20;;;;;;;12.40;100.00;155638.44;5006458;28;20098;-79
2022/07/18 01:44:28;;;;;;;5.30;3.85;;;;;;;12.39;100.00;155635.84;5016130;28;20036;-80
2022/07/18 01:46:55;;;;;;;5.10;4.00;;;;;;;12.34;100.00;155624.31;5023034;28;20124;-80
2022/07/18 01:49:21;;;;;;;4.60;3.88;;;;;;;12.28;100.00;155608.84;5010056;28;20108;-80
2022/07/18 01:51:50;;;;;;;5.60;4.13;;;;;;;12.21;100.00;155592.19;5017708;28;20042;-80
2022/07/18 01:54:16;;;;;;;5.10;3.85;;;;;;;12.19;100.00;155587.06;5003249;28;20026;-80
2022/07/18 01:56:42;;;;;;;4.45;3.92;;;;;;;12.20;100.00;155589.59;5024364;28;20038;-80
2022/07/18 01:59:07;;;;;;;7.40;3.70;;;;;;;12.14;100.00;155572.94;5010490;28;20030;-79
2022/07/18 02:01:33;;;;;;;5.22;3.65;;;;;;;12.11;100.00;155566.53;4976784;28;20473;-79
2022/07/18 02:03:58;;;;;;;4.88;3.80;;;;;;;12.06;100.00;155553.66;5012675;28;20171;-80
2022/07/18 02:06:24;;;;;;;7.07;4.00;;;;;;;12.03;100.00;155547.22;5000541;28;20041;-81
2022/07/18 02:08:50;;;;;;;6.53;4.05;;;;;;;11.96;100.00;155527.97;5014251;28;20049;-80
2022/07/18 02:11:15;;;;;;;4.60;3.85;;;;;;;11.99;100.00;155535.69;4993693;28;20038;-81
2022/07/18 02:13:41;;;;;;;5.80;3.90;;;;;;;11.96;100.00;155529.28;5009800;28;20026;-82
2022/07/18 02:16:07;;;;;;;4.50;3.85;;;;;;;12.04;100.00;155548.53;4997578;28;20112;-80
2022/07/18 02:18:33;;;;;;;5.25;4.00;;;;;;;11.96;100.00;155527.97;5017003;28;20034;-81
2022/07/18 02:20:59;;;;;;;5.82;4.18;;;;;;;11.97;100.00;155531.81;4996932;28;20029;-82
2022/07/18 02:23:25;;;;;;;5.07;4.40;;;;;;;12.03;100.00;155547.22;5012416;28;20659;-80
2022/07/18 02:25:51;;;;;;;5.78;4.40;;;;;;;12.08;100.00;155560.06;4996450;28;20125;-80
2022/07/18 02:28:16;;;;;;;9.60;4.60;;;;;;;12.10;100.00;155563.94;5003331;28;20116;-81
2022/07/18 02:30:42;;;;;;;5.40;4.35;;;;;;;12.16;100.00;155578.06;4994322;28;20517;-80
2022/07/18 02:33:07;;;;;;;5.13;4.38;;;;;;;12.12;100.00;155569.06;4997385;28;20048;-80
2022/07/18 02:35:33;;;;;;;5.55;4.60;;;;;;;12.22;100.00;155593.47;5012399;28;20077;-81
2022/07/18 02:37:59;;;;;;;7.63;4.65;;;;;;;12.25;100.00;155602.44;5005266;28;20128;-80
2022/07/18 02:40:25;;;;;;;7.82;4.97;;;;;;;12.33;100.00;155621.72;5028707;28;20033;-80
2022/07/18 02:42:50;;;;;;;6.85;4.72;;;;;;;12.34;100.00;155622.97;5013016;28;20029;-79
2022/07/18 02:45:16;;;;;;;6.38;4.43;;;;;;;12.39;100.00;155635.84;5025732;28;20034;-80
2022/07/18 02:47:42;;;;;;;6.25;4.65;;;;;;;12.34;100.00;155622.97;5002870;28;20128;-80
2022/07/18 02:50:09;;;;;;;10.23;4.88;;;;;;;12.39;100.00;155637.13;5012667;28;20042;-81
2022/07/18 02:52:35;;;;;;;7.28;4.72;;;;;;;12.36;100.00;155629.44;5002387;28;20129;-80
2022/07/18 02:55:01;;;;;;;6.85;4.65;;;;;;;12.27;100.00;155607.59;5001494;28;20497;-79
2022/07/18 02:57:27;;;;;;;7.80;4.93;;;;;;;12.23;100.00;155596.06;4995571;28;20040;-81
2022/07/18 02:59:53;;;;;;;6.93;4.75;;;;;;;12.21;100.00;155590.91;5011332;28;20128;-79
2022/07/18 03:02:18;;;;;;;8.05;4.78;;;;;;;12.19;100.00;155587.06;5001448;28;20101;-79
2022/07/18 03:04:44;;;;;;;6.20;4.60;;;;;;;12.10;100.00;155563.94;5007292;28;20032;-79
2022/07/18 03:07:10;;;;;;;7.93;4.55;;;;;;;12.10;100.00;155563.94;5019552;28;20034;-80
2022/07/18 03:09:35;;;;;;;6.13;4.15;;;;;;;12.12;100.00;155567.78;5022883;28;20035;-78
2022/07/18 03:12:04;;;;;;;5.97;4.40;;;;;;;12.12;100.00;155569.06;5026694;28;20038;-79
2022/07/18 03:14:29;;;;;;;6.00;4.30;;;;;;;12.15;100.00;155575.47;4993726;28;20037;-80
2022/07/18 03:16:55;;;;;;;6.05;4.60;;;;;;;12.19;100.00;155587.06;5008501;28;20806;-80
2022/07/18 03:19:20;;;;;;;8.45;5.40;;;;;;;12.21;100.00;155592.19;4994602;28;20038;-81
2022/07/18 03:21:46;;;;;;;8.13;4.78;;;;;;;12.20;100.00;155588.31;5011672;28;20019;-81
2022/07/18 03:24:13;;;;;;;7.72;5.07;;;;;;;12.18;100.00;155584.47;5016000;28;20061;-79
2022/07/18 03:26:40;;;;;;;5.60;5.05;;;;;;;12.14;100.00;155572.94;5012598;28;20029;-80
2022/07/18 03:29:05;;;;;;;9.73;4.75;;;;;;;12.08;100.00;155560.06;5026113;28;20058;-78
2022/07/18 03:31:31;;;;;;;5.10;4.60;;;;;;;12.12;100.00;155569.06;5011338;28;20528;-83
2022/07/18 03:33:56;;;;;;;6.85;5.15;;;;;;;12.16;100.00;155578.06;5010152;28;20072;-81
2022/07/18 03:36:22;;;;;;;6.00;4.93;;;;;;;12.17;100.00;155580.66;4995654;28;20129;-80
2022/07/18 03:38:48;;;;;;;7.00;4.70;;;;;;;12.20;100.00;155588.31;5024952;28;20038;-80
2022/07/18 03:41:14;;;;;;;7.82;4.72;;;;;;;12.22;100.00;155594.78;5026197;28;20080;-80
2022/07/18 03:43:40;;;;;;;5.40;4.70;;;;;;;12.26;100.00;155605.03;4992597;28;20033;-80
2022/07/18 03:46:07;;;;;;;7.47;5.60;;;;;;;12.24;100.00;155598.59;5007711;28;20441;-81
2022/07/18 03:48:32;;;;;;;8.00;5.38;;;;;;;12.33;100.00;155621.72;5006732;28;20046;-80
2022/07/18 03:50:59;;;;;;;6.28;5.25;;;;;;;12.36;100.00;155628.16;5010422;28;20088;-80
2022/07/18 03:53:25;;;;;;;10.05;5.70;;;;;;;12.34;100.00;155622.97;5006027;28;20034;-78
2022/07/18 03:55:50;;;;;;;9.02;6.60;;;;;;;12.35;100.00;155625.56;4997801;28;20038;-80
2022/07/18 03:58:16;;;;;;;9.02;6.05;;;;;;;12.26;100.00;155603.72;5008974;28;20026;-80
2022/07/18 04:00:41;;;;;;;7.45;6.05;;;;;;;12.34;100.00;155622.97;4996929;28;20420;-80
2022/07/18 04:03:07;;;;;;;8.52;5.25;;;;;;;12.30;100.00;155614.03;5009628;28;20421;-80
2022/07/18 04:05:33;;;;;;;6.43;5.68;;;;;;;12.28;100.00;155608.84;5011240;28;20057;-80
2022/07/18 04:07:58;;;;;;;8.68;6.35;;;;;;;12.30;100.00;155614.03;4969140;28;20104;-80
2022/07/18 04:10:24;;;;;;;7.50;6.40;;;;;;;12.40;100.00;155638.44;5010583;28;20033;-79
2022/07/18 04:12:52;;;;;;;9.18;5.90;;;;;;;12.48;100.00;155658.97;5012074;28;20057;-80
2022/07/18 04:15:19;;;;;;;8.85;5.95;;;;;;;12.55;100.00;155676.97;5011369;28;20412;-80
2022/07/18 04:17:45;;;;;;;8.80;6.00;;;;;;;12.57;100.00;155682.09;5003286;28;20033;-81
2022/07/18 04:20:11;;;;;;;8.18;5.90;;;;;;;12.66;100.00;155703.94;4988724;28;20113;-79
2022/07/18 04:22:48;;;;;;;8.90;5.55;;;;;;;12.71;100.00;155716.75;4996853;28;20044;-81
2022/07/18 04:25:13;;;;;;;7.57;5.85;;;;;;;12.74;100.00;155724.47;4992659;28;20045;-79
2022/07/18 04:27:40;;;;;;;8.73;5.97;;;;;;;12.77;100.00;155730.88;5009333;28;20046;-80
2022/07/18 04:30:06;;;;;;;8.88;6.20;;;;;;;12.78;100.00;155733.47;5004281;28;20038;-79
2022/07/18 04:32:32;;;;;;;10.63;6.43;;;;;;;12.75;100.00;155727.06;5019411;28;20104;-81
2022/07/18 04:34:57;;;;;;;8.45;5.90;;;;;;;12.81;100.00;155742.47;5021387;28;20494;-79
2022/07/18 04:37:23;;;;;;;7.15;5.43;;;;;;;12.82;100.00;155743.75;5026479;28;20029;-79
2022/07/18 04:39:48;;;;;;;9.07;5.82;;;;;;;12.79;100.00;155737.34;5011054;28;20105;-80
2022/07/18 04:42:14;;;;;;;7.90;5.65;;;;;;;12.79;100.00;155737.34;5005678;28;20046;-80
2022/07/18 04:44:40;;;;;;;7.90;6.15;;;;;;;12.75;100.00;155727.06;4991475;28;20045;-80
2022/07/18 04:47:05;;;;;;;7.40;5.80;;;;;;;12.90;100.00;155763.03;5023320;28;20034;-81
2022/07/18 04:49:31;;;;;;;8.48;5.60;;;;;;;12.81;100.00;155742.47;5010718;28;20037;-81
2022/07/18 04:51:56;;;;;;;7.53;5.57;;;;;;;12.81;100.00;155741.22;5001196;28;20482;-80
2022/07/18 04:54:22;;;;;;;11.52;5.40;;;;;;;12.84;100.00;155748.88;5010044;28;20052;-80
2022/07/18 04:56:48;;;;;;;8.52;5.55;;;;;;;12.82;100.00;155745.03;4998575;28;20120;-80
2022/07/18 04:59:13;;;;;;;5.93;5.22;;;;;;;12.84;100.00;155750.16;5027056;28;20026;-81
2022/07/18 05:01:38;;;;;;;8.02;5.70;;;;;;;12.94;100.00;155773.28;4994337;28;20029;-80
2022/07/18 05:04:04;;;;;;;8.45;5.70;;;;;;;12.96;100.00;155779.75;5010573;28;20034;-81
2022/07/18 05:06:30;;;;;;;7.30;5.13;;;;;;;12.99;100.00;155787.41;5008729;28;20046;-82
2022/07/18 05:08:55;;;;;;;8.23;5.32;;;;;;;13.02;100.00;155795.16;5011322;28;20037;-81
2022/07/18 05:11:21;;;;;;;8.15;5.95;;;;;;;13.11;100.00;155815.69;5004227;28;20042;-80
2022/07/18 05:13:46;;;;;;;7.63;5.00;;;;;;;13.14;100.00;155823.41;4994888;28;20041;-82
2022/07/18 05:16:12;;;;;;;7.75;5.47;;;;;;;13.21;100.00;155842.69;5000336;28;20065;-81
2022/07/18 05:18:38;;;;;;;7.97;5.22;;;;;;;13.27;100.00;155856.81;5018989;28;20042;-81
2022/07/18 05:21:03;;;;;;;7.60;4.85;;;;;;;13.37;100.00;155881.28;5014078;28;20430;-81
2022/07/18 05:23:29;;;;;;;11.55;5.32;;;;;;;13.43;100.00;155898.00;4992455;28;20060;-82
2022/07/18 05:25:55;;;;;;;8.43;4.70;;;;;;;13.52;100.00;155919.84;5010918;28;20054;-80
2022/07/18 05:28:20;;;;;;;7.18;4.95;;;;;;;13.65;100.00;155951.97;5014774;28;20057;-80
2022/07/18 05:30:46;;;;;;;6.68;4.90;;;;;;;13.69;100.00;155962.25;5019602;28;20038;-80
2022/07/18 05:33:12;;;;;;;5.78;4.57;;;;;;;13.73;100.00;155972.56;4998425;28;20057;-81
2022/07/18 05:35:37;;;;;;;7.15;4.85;;;;;;;13.86;100.00;156003.41;5015822;28;20049;-81
2022/07/18 05:38:03;;;;;;;8.60;5.40;;;;;;;13.96;100.00;156030.41;5014556;28;20038;-79
2022/07/18 05:40:29;;;;;;;7.13;4.15;;;;;;;14.00;100.00;156040.69;5014474;28;20037;-81
2022/07/18 05:42:55;;;;;;;7.28;4.50;;;;;;;14.04;100.00;156049.69;5009638;28;20029;-81
2022/07/18 05:45:23;;;;;;;10.20;4.55;;;;;;;14.11;100.00;156066.38;4997358;28;20065;-83
2022/07/18 05:47:48;;;;;;;6.35;4.95;;;;;;;14.10;100.00;156065.09;4992051;28;20109;-81
2022/07/18 05:50:14;;;;;;;6.28;4.40;;;;;;;14.15;100.00;156077.97;5014002;28;20105;-79
2022/07/18 05:52:39;;;;;;;6.25;4.25;;;;;;;14.21;100.00;156092.13;5030135;28;20121;-80
2022/07/18 05:55:06;;;;;;;8.55;4.28;;;;;;;14.38;100.00;156135.84;5014088;28;20034;-80
2022/07/18 05:57:32;;;;;;;6.60;4.10;;;;;;;14.57;100.00;156182.19;5006038;28;20045;-81
2022/07/18 05:59:58;;;;;;;6.18;3.65;;;;;;;14.83;100.00;156246.50;5011803;28;20045;-80
2022/07/18 06:02:24;;;;;;;7.15;3.75;;;;;;;14.90;100.00;156264.47;5011690;28;20101;-79
2022/07/18 06:04:49;;;;;;;8.30;3.92;;;;;;;15.02;100.00;156295.38;4998102;28;20063;-81
2022/07/18 06:07:15;;;;;;;5.38;3.60;;;;;;;15.14;100.00;156324.97;5004389;28;20385;-80
2022/07/18 06:09:40;;;;;;;7.18;4.07;;;;;;;15.25;100.00;156352.00;5002515;28;20062;-80
2022/07/18 06:12:07;;;;;;;4.25;3.47;;;;;;;15.35;100.00;156379.03;4989506;28;20085;-82
2022/07/18 06:14:32;;;;;;;8.18;3.58;;;;;;;15.51;100.00;156418.88;5030249;28;20044;-82
2022/07/18 06:16:58;;;;;;;4.88;3.80;;;;;;;15.84;100.00;156501.31;5030694;28;20026;-80
2022/07/18 06:19:25;;;;;;;5.32;3.67;;;;;;;15.91;100.00;156519.31;5017119;28;20038;-79
2022/07/18 06:21:51;;;;;;;7.35;3.38;;;;;;;16.04;100.00;156551.50;5013679;28;20030;-80
2022/07/18 06:24:17;;;;;;;5.03;3.42;;;;;;;16.23;100.00;156599.13;5032886;28;20042;-80
2022/07/18 06:26:42;;;;;;;4.40;3.00;;;;;;;16.24;100.00;156600.44;5016832;28;20034;-77
2022/07/18 06:29:08;;;;;;;5.22;3.05;;;;;;;16.40;100.00;156640.34;5002636;28;20037;-77
2022/07/18 06:31:33;;;;;;;5.55;3.42;;;;;;;16.46;100.00;156657.09;5014200;28;20046;-78
2022/07/18 06:33:59;;;;;;;6.35;3.28;;;;;;;16.61;100.00;156693.13;5012597;28;20093;-77
2022/07/18 06:36:24;;;;;;;6.28;3.10;;;;;;;16.73;100.00;156725.31;5010770;28;20026;-78
2022/07/18 06:38:51;;;;;;;3.72;2.97;;;;;;;16.84;100.00;156752.44;5002678;28;20034;-78
2022/07/18 06:41:17;;;;;;;5.80;3.25;;;;;;;16.91;100.00;156769.13;5003945;28;20038;-78
2022/07/18 06:43:43;;;;;;;4.32;3.05;;;;;;;16.98;100.00;156787.19;5011213;28;20034;-77
2022/07/18 06:46:09;;;;;;;5.70;2.75;;;;;;;17.03;100.00;156798.81;5031901;28;20044;-78
2022/07/18 06:48:35;;;;;;;5.07;3.22;;;;;;;17.12;100.00;156821.94;5015575;28;20080;-77
2022/07/18 06:51:02;;;;;;;6.22;3.50;;;;;;;17.17;100.00;156834.84;5010471;28;20398;-79
2022/07/18 06:53:28;;;;;;;5.18;3.10;;;;;;;17.41;100.00;156894.09;4999844;28;20034;-78
2022/07/18 06:55:55;;;;;;;5.00;3.50;;;;;;;17.76;97.15;156982.97;5027395;28;20034;-77
2022/07/18 06:58:20;;;;;;;5.30;3.13;;;;;;;17.74;95.27;156977.81;5014556;28;20107;-78
2022/07/18 07:00:46;;;;;;;7.32;3.15;;;;;;;17.95;95.50;157029.41;5013421;28;20034;-78
2022/07/18 07:03:11;;;;;;;5.05;3.40;;;;;;;18.03;94.96;157051.34;5016233;28;20034;-78
2022/07/18 07:05:38;;;;;;;7.53;3.55;;;;;;;18.12;93.89;157071.94;5003618;28;20053;-78
2022/07/18 07:08:03;;;;;;;5.50;3.38;;;;;;;18.26;92.67;157109.31;5018812;28;20030;-77
2022/07/18 07:10:29;;;;;;;4.53;3.58;;;;;;;18.67;92.64;157211.19;5024675;28;20085;-78
2022/07/18 07:12:55;;;;;;;5.82;3.75;;;;;;;19.00;86.65;157293.72;5008619;28;20038;-79
2022/07/18 07:15:22;;;;;;;3.97;2.95;;;;;;;19.00;86.65;157295.00;4997157;28;20064;-78
2022/07/18 07:17:48;;;;;;;5.63;3.40;;;;;;;18.91;87.59;157271.81;4998266;28;20109;-79
2022/07/18 07:20:15;;;;;;;5.47;3.20;;;;;;;19.20;89.70;157344.03;5025000;28;20071;-79
2022/07/18 07:22:48;;;;;;;7.60;3.65;;;;;;;19.60;84.66;157444.59;5007721;28;20069;-77
2022/07/18 07:25:15;;;;;;;5.18;3.60;;;;;;;19.85;83.71;157507.84;4997772;28;20038;-77
2022/07/18 07:27:41;;;;;;;7.82;3.38;;;;;;;20.05;82.19;157558.16;5026250;28;20493;-77
2022/07/18 07:30:07;;;;;;;7.03;3.72;;;;;;;20.13;82.37;157578.78;5026448;28;20056;-77
2022/07/18 07:32:35;;;;;;;4.38;3.28;;;;;;;19.92;82.94;157525.91;4995553;28;20600;-76
2022/07/18 07:35:01;;;;;;;6.13;3.50;;;;;;;19.75;85.97;157483.34;4977511;28;20042;-77
2022/07/18 07:37:27;;;;;;;9.88;3.72;;;;;;;19.69;86.74;157467.81;5007004;28;20057;-77
2022/07/18 07:39:53;;;;;;;5.53;3.65;;;;;;;19.64;84.68;157454.91;4996447;28;20191;-77
2022/07/18 07:42:18;;;;;;;6.63;3.65;;;;;;;19.93;84.40;157528.50;5012004;28;20072;-77
2022/07/18 07:44:44;;;;;;;9.15;3.80;;;;;;;20.31;81.16;157623.97;5010435;28;20037;-77
2022/07/18 07:47:09;;;;;;;6.93;4.07;;;;;;;20.40;78.92;157647.19;5021247;28;20618;-78
2022/07/18 07:49:36;;;;;;;4.13;3.58;;;;;;;20.30;76.15;157620.09;5009964;28;20041;-77
2022/07/18 07:52:02;;;;;;;6.18;3.78;;;;;;;20.15;80.12;157583.94;5018779;28;20074;-76
2022/07/18 07:54:28;;;;;;;8.15;4.45;;;;;;;20.14;81.63;157581.41;5010436;28;20123;-77
2022/07/18 07:56:53;;;;;;;6.60;4.15;;;;;;;20.31;80.61;157622.69;5012597;28;20823;-77
2022/07/18 07:59:19;;;;;;;6.22;4.00;;;;;;;20.64;79.79;157706.59;5002224;28;20041;-76
2022/07/18 08:01:44;;;;;;;8.07;4.25;;;;;;;20.96;76.53;157786.59;5021867;28;20040;-77
2022/07/18 08:04:10;;;;;;;6.07;3.88;;;;;;;21.32;76.77;157878.28;5013495;28;20565;-76
2022/07/18 08:06:36;;;;;;;6.15;4.25;;;;;;;21.60;75.55;157946.75;4996614;28;20477;-77
2022/07/18 08:09:01;;;;;;;5.45;4.20;;;;;;;21.63;74.51;157954.50;5010655;28;20404;-77
2022/07/18 08:11:27;;;;;;;6.55;4.50;;;;;;;21.41;70.87;157900.22;5019438;28;20038;-77
2022/07/18 08:13:54;;;;;;;9.15;4.18;;;;;;;21.13;72.28;157830.47;5024513;28;20121;-76
2022/07/18 08:16:19;;;;;;;8.60;4.57;;;;;;;20.92;74.63;157776.28;5019329;28;20045;-77
2022/07/18 08:18:45;;;;;;;9.43;4.65;;;;;;;20.90;74.63;157771.13;5003879;28;20030;-77
2022/07/18 08:21:11;;;;;;;11.00;4.28;;;;;;;21.12;75.54;157827.94;5000914;28;20036;-77
2022/07/18 08:23:36;;;;;;;8.05;4.30;;;;;;;21.43;70.36;157905.38;5010936;28;20040;-78
2022/07/18 08:26:03;;;;;;;6.40;3.90;;;;;;;21.67;69.42;157964.84;4995076;28;20110;-77
2022/07/18 08:28:28;;;;;;;6.10;3.85;;;;;;;21.74;68.80;157984.19;5014412;28;20534;-77
2022/07/18 08:30:54;;;;;;;16.35;4.63;;;;;;;21.85;68.60;158010.00;4998727;28;20036;-78
2022/07/18 08:33:19;;;;;;;10.73;4.30;;;;;;;22.22;68.86;158103.00;5014551;28;20045;-77
2022/07/18 08:35:45;;;;;;;6.70;3.85;;;;;;;22.49;68.27;158172.81;5024732;28;20383;-77
2022/07/18 08:38:10;;;;;;;8.30;4.03;;;;;;;22.88;66.82;158270.97;5013358;28;20045;-77
2022/07/18 08:40:37;;;;;;;7.65;4.05;;;;;;;22.88;65.74;158269.69;5005864;28;20514;-77
2022/07/18 08:43:03;;;;;;;8.85;3.85;;;;;;;22.68;67.98;158220.59;5005775;28;20041;-77
2022/07/18 08:45:29;;;;;;;7.68;3.58;;;;;;;22.49;67.19;158171.50;5024508;28;20112;-78
2022/07/18 08:47:55;;;;;;;7.70;4.15;;;;;;;22.38;69.61;158144.41;5023430;28;21115;-77
2022/07/18 08:50:22;;;;;;;9.63;4.28;;;;;;;22.20;72.34;158097.84;5014441;28;20037;-78
2022/07/18 08:52:49;;;;;;;10.52;4.07;;;;;;;22.51;70.82;158176.69;5005160;28;20573;-77
2022/07/18 08:55:15;;;;;;;3.78;3.30;;;;;;;22.67;66.87;158218.00;5014082;28;20122;-78
2022/07/18 08:57:41;;;;;;;5.93;3.70;;;;;;;22.84;68.04;158260.63;5010274;28;20026;-76
2022/07/18 09:00:09;;;;;;;6.07;3.08;;;;;;;23.08;63.56;158321.41;5003003;28;20048;-78
2022/07/18 09:02:35;;;;;;;7.35;3.53;;;;;;;23.17;63.47;158342.06;5000572;28;20042;-78
2022/07/18 09:05:02;;;;;;;5.68;3.58;;;;;;;23.34;65.79;158386.06;4996663;28;20034;-78
2022/07/18 09:07:30;;;;;;;5.03;2.95;;;;;;;23.41;63.02;158404.09;5012794;28;20536;-78
2022/07/18 09:09:58;;;;;;;7.53;3.60;;;;;;;23.35;63.34;158387.31;5026429;28;20034;-78
2022/07/18 09:12:30;;;;;;;5.20;3.42;;;;;;;23.33;63.89;158384.72;5004855;28;20100;-77
2022/07/18 09:14:56;;;;;;;5.82;3.63;;;;;;;23.51;61.49;158429.97;5027395;28;20494;-78
2022/07/18 09:17:28;;;;;;;7.88;4.00;;;;;;;23.77;61.41;158493.28;5013043;28;20038;-78
2022/07/18 09:19:57;;;;;;;4.10;3.40;;;;;;;23.92;58.53;158532.13;5022860;28;20422;-77
2022/07/18 09:22:26;;;;;;;7.18;4.07;;;;;;;24.00;61.17;158552.84;4989994;28;20036;-78
2022/07/18 09:24:59;;;;;;;4.72;3.00;;;;;;;24.13;61.08;158583.84;5009852;28;20038;-78
2022/07/18 09:27:38;;;;;;;6.70;3.55;;;;;;;24.28;58.84;158622.66;5010514;28;20038;-77
2022/07/18 09:30:28;;;;;;;5.95;3.65;;;;;;;24.45;57.87;158666.59;5007513;28;20112;-77
2022/07/18 09:33:04;;;;;;;4.43;3.25;;;;;;;24.47;56.74;158671.78;5007433;28;20045;-76
2022/07/18 09:35:51;;;;;;;6.57;3.70;;;;;;;24.45;57.30;158665.31;4991790;28;20056;-77
2022/07/18 09:38:20;;;;;;;6.45;3.50;;;;;;;24.76;56.46;158742.94;4984445;28;20131;-77
2022/07/18 09:40:52;;;;;;;6.82;3.72;;;;;;;24.75;57.52;158740.34;4999341;28;20033;-77
2022/07/18 09:43:19;;;;;;;6.47;3.50;;;;;;;24.82;58.50;158759.72;4995846;28;20149;-77
2022/07/18 09:45:53;;;;;;;6.22;3.22;;;;;;;25.16;57.25;158843.81;4989328;28;20045;-78
2022/07/18 09:48:25;;;;;;;7.70;3.60;;;;;;;25.39;57.53;158903.38;5006540;28;20042;-76
2022/07/18 09:50:56;;;;;;;4.40;3.08;;;;;;;25.41;55.64;158907.22;4984655;28;20038;-77
2022/07/18 09:53:34;;;;;;;8.75;3.67;;;;;;;25.50;61.05;158930.50;5003007;28;20097;-77
2022/07/18 09:56:06;;;;;;;4.70;3.13;;;;;;;25.64;61.72;158966.75;5025998;28;20501;-77
2022/07/18 09:58:38;;;;;;;4.22;3.28;;;;;;;25.36;57.48;158894.31;5015652;28;20133;-78
2022/07/18 10:01:05;;;;;;;7.53;3.58;;;;;;;24.94;58.45;158789.50;5027125;28;20045;-77
2022/07/18 10:03:32;;;;;;;6.80;3.30;;;;;;;25.13;60.54;158837.34;5009076;28;20401;-77
2022/07/18 10:05:59;;;;;;;6.18;3.17;;;;;;;25.56;54.50;158946.06;5001847;28;20124;-78
2022/07/18 10:08:27;;;;;;;4.90;3.50;;;;;;;25.74;57.11;158990.06;5014552;28;20068;-78
2022/07/18 10:10:54;;;;;;;7.45;3.63;;;;;;;25.77;55.10;158997.84;4987204;28;20049;-77
2022/07/18 10:13:23;;;;;;;6.13;3.22;;;;;;;25.60;53.38;158955.13;5008699;28;20039;-78
2022/07/18 10:15:50;;;;;;;8.20;3.50;;;;;;;25.58;55.25;158951.25;5004920;28;20034;-78
2022/07/18 10:18:19;;;;;;;5.22;3.10;;;;;;;25.52;56.23;158934.41;5013105;28;20029;-77
2022/07/18 10:20:47;;;;;;;7.70;3.15;;;;;;;25.51;58.13;158931.84;5020340;28;20036;-78
2022/07/18 10:23:24;;;;;;;5.13;3.00;;;;;;;25.37;57.53;158898.22;4993100;28;20145;-77
2022/07/18 10:26:24;;;;;;;5.28;3.30;;;;;;;25.44;58.75;158916.28;5007800;28;20044;-76
2022/07/18 10:28:56;;;;;;;4.53;3.03;;;;;;;25.68;56.75;158975.81;5023324;28;20401;-77
2022/07/18 10:31:30;;;;;;;7.65;3.47;;;;;;;25.83;53.28;159014.63;5010766;28;20205;-78
2022/07/18 10:34:04;;;;;;;7.07;3.63;;;;;;;25.97;53.25;159049.59;5012917;28;20053;-77
2022/07/18 10:36:30;;;;;;;6.93;3.30;;;;;;;26.28;53.08;159127.25;4988888;28;20042;-78
2022/07/18 10:39:07;;;;;;;4.68;3.38;;;;;;;26.60;50.67;159207.56;5011908;28;20053;-76
2022/07/18 10:41:38;;;;;;;8.13;3.50;;;;;;;26.71;51.16;159234.72;5029961;28;20140;-76
2022/07/18 10:44:23;;;;;;;7.32;3.72;;;;;;;26.91;51.75;159285.22;5013836;28;20053;-78
2022/07/18 10:47:13;;;;;;;5.13;3.40;;;;;;;27.20;49.91;159359.03;5014046;28;20044;-79
2022/07/18 10:49:57;;;;;;;7.50;3.88;;;;;;;27.06;45.22;159324.03;4996840;28;20042;-77
2022/07/18 10:52:23;;;;;;;6.20;3.70;;;;;;;27.32;45.84;159390.13;5005824;28;20045;-79
2022/07/18 10:55:01;;;;;;;5.60;3.50;;;;;;;27.27;46.84;159377.16;5013278;28;20041;-77
2022/07/18 10:57:27;;;;;;;4.38;3.20;;;;;;;27.23;50.32;159365.50;5010407;28;20588;-77
2022/07/18 11:00:13;;;;;;;4.43;3.28;;;;;;;27.53;45.42;159441.91;5013672;28;20037;-76
2022/07/18 11:02:48;;;;;;;6.45;3.50;;;;;;;27.30;44.44;159384.94;5026255;28;20036;-77
2022/07/18 11:05:23;;;;;;;5.45;3.15;;;;;;;27.41;46.00;159410.81;5004568;28;20076;-76
2022/07/18 11:07:58;;;;;;;7.72;3.75;;;;;;;27.24;45.88;159369.38;5015652;28;20536;-78
2022/07/18 11:10:42;;;;;;;5.95;3.38;;;;;;;27.25;44.17;159372.00;5008522;28;20050;-76
2022/07/18 11:13:32;;;;;;;9.52;3.40;;;;;;;27.37;45.94;159403.09;5014094;28;20049;-75
2022/07/18 11:16:05;;;;;;;7.18;3.25;;;;;;;27.67;44.63;159476.88;5014425;28;20686;-77
2022/07/18 11:18:32;;;;;;;5.82;3.53;;;;;;;27.84;43.46;159520.94;5012583;28;20052;-77
2022/07/18 11:20:58;;;;;;;6.93;3.53;;;;;;;27.56;45.19;159449.72;5013987;28;20501;-77
2022/07/18 11:23:26;;;;;;;6.90;3.35;;;;;;;27.20;46.08;159359.03;5012487;28;20042;-78